Time;durP1;ratioP1;P1;durP2;ratioP2;P2;SDS_P1;SDS_P2;PMS_P1;PMS_P2;Temp;Humidity;BMP_temperature;BMP_pressure;BME280_temperature;BME280_humidity;BME280_pressure;Samples;Min_cycle;Max_cycle;Signal;HPM_P1;HPM_P2
2023/07/13 00:00:12;;;;;;;2.95;1.30;;;;;;;16.86;100.00;100169.84;5030393;28;20566;-62
2023/07/13 00:02:38;;;;;;;4.40;1.60;;;;;;;16.75;100.00;100166.25;5031545;28;20052;-62
2023/07/13 00:05:06;;;;;;;3.10;1.30;;;;;;;16.65;100.00;100159.00;5031836;28;20049;-63
2023/07/13 00:07:34;;;;;;;3.30;1.20;;;;;;;16.81;100.00;100168.47;5031557;28;20046;-62
2023/07/13 00:10:02;;;;;;;3.15;1.20;;;;;;;16.78;100.00;100172.16;5027934;28;20426;-62
2023/07/13 00:12:32;;;;;;;3.00;1.20;;;;;;;16.61;100.00;100154.91;5031229;28;20395;-62
2023/07/13 00:15:00;;;;;;;5.65;1.50;;;;;;;16.71;100.00;100163.00;5030818;28;20387;-62
2023/07/13 00:17:28;;;;;;;3.65;1.33;;;;;;;16.79;100.00;100173.03;5011747;28;20064;-62
2023/07/13 00:19:56;;;;;;;4.82;1.35;;;;;;;16.74;100.00;100169.88;5013724;28;20049;-62
2023/07/13 00:22:25;;;;;;;5.90;1.50;;;;;;;16.60;100.00;100170.84;5031367;28;20080;-62
2023/07/13 00:24:55;;;;;;;6.43;1.58;;;;;;;16.58;100.00;100157.75;5031802;28;20072;-62
2023/07/13 00:27:23;;;;;;;3.33;1.23;;;;;;;16.79;100.00;100173.03;5030972;28;20300;-62
2023/07/13 00:29:49;;;;;;;8.07;1.52;;;;;;;16.78;100.00;100166.88;5022617;28;20504;-62
2023/07/13 00:32:16;;;;;;;3.60;1.27;;;;;;;16.69;100.00;100163.09;5031110;28;20060;-62
2023/07/13 00:34:43;;;;;;;5.80;1.98;;;;;;;16.49;100.00;100164.53;5031080;28;20052;-62
2023/07/13 00:37:11;;;;;;;3.28;1.30;;;;;;;16.27;100.00;100162.59;5029876;28;20479;-62
2023/07/13 00:39:38;;;;;;;2.83;1.17;;;;;;;16.30;100.00;100165.00;5027796;28;20050;-62
2023/07/13 00:42:06;;;;;;;4.63;1.30;;;;;;;16.04;100.00;100166.84;5017091;28;20076;-62
2023/07/13 00:44:33;;;;;;;3.95;1.30;;;;;;;16.17;100.00;100172.09;5030854;28;20069;-63
2023/07/13 00:47:00;;;;;;;4.32;1.50;;;;;;;16.28;100.00;100172.19;5028291;28;20333;-63
2023/07/13 00:49:30;;;;;;;5.00;1.60;;;;;;;16.43;100.00;100172.06;5024049;28;20046;-63
2023/07/13 00:52:02;;;;;;;5.20;1.50;;;;;;;16.40;100.00;100177.56;5025166;28;20053;-62
2023/07/13 00:54:41;;;;;;;4.13;1.40;;;;;;;16.40;100.00;100177.56;5030061;28;20062;-62
2023/07/13 00:57:12;;;;;;;7.97;1.58;;;;;;;16.33;100.00;100183.28;5030191;28;20057;-62
2023/07/13 00:59:42;;;;;;;6.85;1.88;;;;;;;16.29;100.00;100173.88;5029215;28;20391;-62
2023/07/13 01:02:10;;;;;;;4.53;1.45;;;;;;;16.35;100.00;100174.41;5031064;28;20045;-62
2023/07/13 01:04:38;;;;;;;6.07;1.58;;;;;;;16.25;100.00;100172.41;5030062;28;20056;-62
2023/07/13 01:07:06;;;;;;;6.72;1.67;;;;;;;16.36;100.00;100176.09;5030717;28;20061;-62
2023/07/13 01:09:33;;;;;;;7.75;1.83;;;;;;;16.38;100.00;100174.16;5027231;28;20081;-62
2023/07/13 01:12:00;;;;;;;3.50;1.67;;;;;;;16.28;100.00;100164.25;5012962;28;20069;-62
2023/07/13 01:14:27;;;;;;;5.72;1.92;;;;;;;16.22;100.00;100162.06;5030408;28;20060;-63
2023/07/13 01:16:54;;;;;;;8.27;2.15;;;;;;;16.20;100.00;100163.97;5031025;28;20045;-62
2023/07/13 01:19:36;;;;;;;3.33;1.60;;;;;;;16.17;100.00;100166.81;5029596;28;20095;-62
2023/07/13 01:22:26;;;;;;;5.65;2.10;;;;;;;16.25;100.00;100167.09;5016643;28;20053;-62
2023/07/13 01:24:54;;;;;;;7.25;2.20;;;;;;;16.25;100.00;100174.19;5024008;28;20132;-62
2023/07/13 01:27:24;;;;;;;5.03;1.73;;;;;;;16.07;100.00;100169.25;5029375;28;20050;-62
2023/07/13 01:29:52;;;;;;;4.57;1.70;;;;;;;16.08;100.00;100173.59;5021341;28;20084;-62
2023/07/13 01:32:25;;;;;;;5.40;1.70;;;;;;;16.03;100.00;100177.50;5030605;28;20049;-62
2023/07/13 01:34:54;;;;;;;7.32;1.85;;;;;;;16.02;100.00;100178.44;5030583;28;20057;-62
2023/07/13 01:37:22;;;;;;;4.72;1.77;;;;;;;16.08;100.00;100181.50;5029769;28;20053;-62
2023/07/13 01:39:49;;;;;;;3.58;1.58;;;;;;;16.01;100.00;100180.25;5027217;28;20053;-62
2023/07/13 01:42:15;;;;;;;3.78;1.67;;;;;;;15.90;100.00;100181.00;5029532;28;20392;-62
2023/07/13 01:44:42;;;;;;;4.22;1.50;;;;;;;15.97;100.00;100173.50;5029303;28;20064;-63
2023/07/13 01:47:09;;;;;;;5.05;1.77;;;;;;;15.90;100.00;100164.28;5030120;28;20042;-62
2023/07/13 01:49:37;;;;;;;5.32;1.60;;;;;;;15.91;100.00;100166.00;5023570;28;20512;-62
2023/07/13 01:52:04;;;;;;;4.75;1.90;;;;;;;16.04;100.00;100173.91;5025489;28;20068;-62
2023/07/13 01:54:33;;;;;;;7.10;1.98;;;;;;;15.99;100.00;100170.72;5029838;28;20049;-62
2023/07/13 01:57:00;;;;;;;6.25;1.50;;;;;;;16.03;100.00;100182.78;5030028;28;20053;-62
2023/07/13 01:59:27;;;;;;;4.85;1.63;;;;;;;16.03;100.00;100169.59;5023977;28;20077;-62
2023/07/13 02:01:54;;;;;;;6.88;1.50;;;;;;;16.05;100.00;100173.81;5024749;28;20136;-62
2023/07/13 02:04:20;;;;;;;6.35;1.75;;;;;;;16.00;100.00;100164.50;5034026;28;20273;-62
2023/07/13 02:06:47;;;;;;;3.63;1.60;;;;;;;15.98;100.00;100171.69;5033417;28;20095;-62
2023/07/13 02:09:14;;;;;;;5.35;1.60;;;;;;;15.98;100.00;100169.06;5032126;28;20387;-62
2023/07/13 02:11:40;;;;;;;4.50;1.70;;;;;;;15.83;100.00;100163.88;5033566;28;20414;-63
2023/07/13 02:14:07;;;;;;;5.78;1.70;;;;;;;15.71;100.00;100165.53;5033376;28;20506;-62
2023/07/13 02:16:34;;;;;;;5.90;1.75;;;;;;;15.92;100.00;100179.09;5016156;28;20510;-63
2023/07/13 02:19:01;;;;;;;4.50;1.70;;;;;;;15.95;100.00;100172.75;5031909;28;20122;-63
2023/07/13 02:21:27;;;;;;;6.70;1.92;;;;;;;15.89;100.00;100174.00;5029407;28;20060;-63
2023/07/13 02:23:54;;;;;;;6.13;1.80;;;;;;;15.96;100.00;100169.16;5033495;28;20052;-63
2023/07/13 02:26:21;;;;;;;7.65;2.15;;;;;;;16.09;100.00;100179.72;5033273;28;20060;-63
2023/07/13 02:28:48;;;;;;;4.35;1.70;;;;;;;16.08;100.00;100178.88;5033470;28;20053;-63
2023/07/13 02:31:16;;;;;;;4.88;1.60;;;;;;;15.97;100.00;100180.56;5025379;28;20059;-63
2023/07/13 02:33:43;;;;;;;4.70;1.70;;;;;;;16.05;100.00;100187.00;5032848;28;20630;-63
2023/07/13 02:36:10;;;;;;;4.70;1.63;;;;;;;15.89;100.00;100167.91;5033526;28;20054;-63
2023/07/13 02:38:38;;;;;;;4.13;1.60;;;;;;;16.00;100.00;100186.47;5033240;28;20045;-63
2023/07/13 02:41:08;;;;;;;4.53;1.80;;;;;;;15.94;100.00;100181.63;5029392;28;20057;-63
2023/07/13 02:43:35;;;;;;;4.53;1.80;;;;;;;16.02;100.00;100191.66;5031782;28;20157;-63
2023/07/13 02:46:06;;;;;;;4.00;1.60;;;;;;;15.89;100.00;100189.00;5030673;28;20052;-63
2023/07/13 02:48:35;;;;;;;6.15;1.90;;;;;;;15.90;100.00;100188.03;5033210;28;20474;-63
2023/07/13 02:51:02;;;;;;;5.28;1.80;;;;;;;15.82;100.00;100174.56;5032039;28;20049;-63
2023/07/13 02:53:29;;;;;;;6.20;2.08;;;;;;;15.85;100.00;100190.19;5033387;28;20096;-63
2023/07/13 02:55:56;;;;;;;5.43;2.00;;;;;;;15.90;100.00;100185.41;5019247;28;20049;-63
2023/07/13 02:58:23;;;;;;;4.70;1.50;;;;;;;15.86;100.00;100178.66;5032710;28;20049;-63
2023/07/13 03:00:50;;;;;;;3.53;1.40;;;;;;;15.86;100.00;100171.56;5019862;28;20717;-63
2023/07/13 03:03:17;;;;;;;4.38;1.58;;;;;;;15.86;100.00;100170.75;5032427;28;20396;-63
2023/07/13 03:05:44;;;;;;;4.15;1.60;;;;;;;15.74;100.00;100170.66;5032964;28;20050;-63
2023/07/13 03:08:12;;;;;;;3.83;1.52;;;;;;;15.69;100.00;100163.97;5015241;28;20358;-63
2023/07/13 03:10:39;;;;;;;3.72;1.30;;;;;;;15.60;100.00;100170.69;5030106;28;20064;-63
2023/07/13 03:13:06;;;;;;;5.00;1.73;;;;;;;15.63;100.00;100167.00;5031538;28;20050;-63
2023/07/13 03:15:33;;;;;;;4.43;1.60;;;;;;;15.61;100.00;100168.91;5031680;28;20053;-63
2023/07/13 03:17:59;;;;;;;3.97;1.58;;;;;;;15.64;100.00;100174.81;5032373;28;20053;-63
2023/07/13 03:20:26;;;;;;;4.78;1.63;;;;;;;15.68;100.00;100168.38;5024260;28;20475;-63
2023/07/13 03:22:53;;;;;;;5.22;1.77;;;;;;;15.81;100.00;100172.84;5014856;28;20559;-63
2023/07/13 03:25:20;;;;;;;5.18;1.75;;;;;;;15.68;100.00;100178.94;5032172;28;20161;-63
2023/07/13 03:27:46;;;;;;;5.43;1.83;;;;;;;15.75;100.00;100176.75;5031971;28;20541;-63
2023/07/13 03:30:13;;;;;;;5.90;1.67;;;;;;;15.63;100.00;100175.75;5025637;28;20144;-63
2023/07/13 03:32:40;;;;;;;7.45;1.65;;;;;;;15.55;100.00;100186.00;5031631;28;20064;-63
2023/07/13 03:35:08;;;;;;;4.63;1.48;;;;;;;15.50;100.00;100178.38;5031915;28;20471;-63
2023/07/13 03:37:34;;;;;;;3.58;1.45;;;;;;;15.58;100.00;100183.13;5032048;28;20050;-63
2023/07/13 03:40:01;;;;;;;5.15;1.38;;;;;;;15.51;100.00;100174.81;5031245;28;20127;-63
2023/07/13 03:42:28;;;;;;;6.25;1.63;;;;;;;15.51;100.00;100195.91;5032011;28;20049;-62
2023/07/13 03:44:55;;;;;;;6.25;1.95;;;;;;;15.41;100.00;100192.19;5032180;28;20475;-63
2023/07/13 03:47:21;;;;;;;4.85;1.52;;;;;;;15.60;100.00;100191.81;5032384;28;20402;-63
2023/07/13 03:49:48;;;;;;;4.00;1.50;;;;;;;15.70;100.00;100187.56;5031019;28;20056;-63
2023/07/13 03:52:14;;;;;;;5.00;1.70;;;;;;;15.79;100.00;100193.22;5032532;28;20053;-63
2023/07/13 03:54:41;;;;;;;5.07;1.55;;;;;;;15.75;100.00;100192.59;5032254;28;20045;-63
2023/07/13 03:57:08;;;;;;;5.47;1.70;;;;;;;15.64;100.00;100193.28;5031871;28;20076;-63
2023/07/13 03:59:35;;;;;;;3.58;1.42;;;;;;;15.65;100.00;100191.47;5033783;28;20072;-63
2023/07/13 04:02:04;;;;;;;7.18;1.60;;;;;;;15.79;100.00;100201.97;5030841;28;20053;-63
2023/07/13 04:04:31;;;;;;;5.80;1.80;;;;;;;15.90;100.00;100210.03;5018716;28;20548;-63
2023/07/13 04:06:58;;;;;;;4.70;1.48;;;;;;;15.62;100.00;100205.75;5032210;28;20071;-63
2023/07/13 04:09:25;;;;;;;6.50;1.60;;;;;;;15.71;100.00;100204.28;5030251;28;20505;-63
2023/07/13 04:11:51;;;;;;;5.35;1.52;;;;;;;15.79;100.00;100204.63;5031568;28;20057;-63
2023/07/13 04:14:18;;;;;;;4.60;1.52;;;;;;;15.87;100.00;100201.47;5031538;28;20082;-63
2023/07/13 04:16:45;;;;;;;4.30;1.42;;;;;;;15.84;100.00;100196.41;5031520;28;20486;-63
2023/07/13 04:19:12;;;;;;;4.65;1.58;;;;;;;15.90;100.00;100209.16;5029560;28;20050;-63
2023/07/13 04:21:39;;;;;;;4.53;1.63;;;;;;;15.88;100.00;100206.66;5031418;28;20065;-63
2023/07/13 04:24:07;;;;;;;2.45;1.30;;;;;;;15.82;100.00;100204.41;5031125;28;20050;-63
2023/07/13 04:26:35;;;;;;;4.57;1.50;;;;;;;15.89;100.00;100207.50;5030778;28;20049;-63
2023/07/13 04:29:03;;;;;;;4.47;1.58;;;;;;;15.95;100.00;100209.69;5030156;28;20559;-63
2023/07/13 04:31:31;;;;;;;4.53;1.40;;;;;;;16.00;100.00;100212.88;5030912;28;20053;-63
2023/07/13 04:33:58;;;;;;;3.40;1.20;;;;;;;16.02;100.00;100210.13;5031163;28;20053;-63
2023/07/13 04:36:26;;;;;;;7.25;1.75;;;;;;;16.10;100.00;100223.66;5031178;28;20049;-63
2023/07/13 04:38:53;;;;;;;4.60;1.30;;;;;;;16.10;100.00;100221.84;5031316;28;20045;-63
2023/07/13 04:41:21;;;;;;;3.60;1.35;;;;;;;16.02;100.00;100224.16;5028081;28;20045;-63
2023/07/13 04:43:48;;;;;;;3.85;1.30;;;;;;;15.90;100.00;100204.75;5030332;28;20077;-63
2023/07/13 04:46:20;;;;;;;4.95;1.63;;;;;;;16.03;100.00;100225.88;5030531;28;20057;-63
2023/07/13 04:48:50;;;;;;;4.30;1.70;;;;;;;15.91;100.00;100222.25;5031060;28;20073;-63
2023/07/13 04:51:17;;;;;;;5.10;1.75;;;;;;;15.87;100.00;100212.88;5029422;28;20085;-63
2023/07/13 04:53:44;;;;;;;3.45;1.40;;;;;;;16.01;100.00;100226.94;5030816;28;20050;-63
2023/07/13 04:56:11;;;;;;;5.60;1.52;;;;;;;16.07;100.00;100222.06;5029789;28;20046;-63
2023/07/13 04:58:38;;;;;;;3.53;1.63;;;;;;;16.00;100.00;100230.53;5031849;28;20045;-63
2023/07/13 05:01:06;;;;;;;4.40;1.50;;;;;;;16.09;100.00;100232.53;5027505;28;20406;-63
2023/07/13 05:03:33;;;;;;;2.70;1.30;;;;;;;16.14;100.00;100227.78;5029936;28;20059;-63
2023/07/13 05:06:06;;;;;;;5.15;1.60;;;;;;;16.13;100.00;100232.22;5030240;28;20049;-63
2023/07/13 05:08:33;;;;;;;4.60;1.50;;;;;;;16.07;100.00;100234.44;5030485;28;20056;-63
2023/07/13 05:11:01;;;;;;;4.25;1.30;;;;;;;16.16;100.00;100232.94;5027022;28;20058;-63
2023/07/13 05:13:27;;;;;;;3.78;1.52;;;;;;;16.16;100.00;100233.78;5029653;28;20060;-63
2023/07/13 05:16:04;;;;;;;4.03;1.60;;;;;;;16.20;100.00;100245.00;5030306;28;20050;-63
2023/07/13 05:18:31;;;;;;;3.45;1.20;;;;;;;16.16;100.00;100238.25;5029826;28;20132;-63
2023/07/13 05:21:03;;;;;;;3.97;1.55;;;;;;;16.20;100.00;100237.94;5035203;28;20060;-63
2023/07/13 05:23:32;;;;;;;4.97;1.80;;;;;;;16.32;100.00;100231.81;5032101;28;20406;-63
2023/07/13 05:25:59;;;;;;;5.22;1.55;;;;;;;16.37;100.00;100242.03;5030114;28;20498;-63
2023/07/13 05:28:26;;;;;;;3.80;1.60;;;;;;;16.38;100.00;100222.59;5030348;28;20482;-63
2023/07/13 05:30:54;;;;;;;3.03;1.30;;;;;;;16.33;100.00;100233.47;5025866;28;20080;-63
2023/07/13 05:33:21;;;;;;;3.90;1.50;;;;;;;16.29;100.00;100234.66;5029237;28;20054;-63
2023/07/13 05:35:48;;;;;;;6.03;1.58;;;;;;;16.45;100.00;100234.41;5029866;28;20479;-63
2023/07/13 05:38:15;;;;;;;3.75;1.63;;;;;;;16.69;100.00;100245.03;5030046;28;20469;-63
2023/07/13 05:40:46;;;;;;;3.22;1.30;;;;;;;16.75;100.00;100248.19;5030017;28;20052;-63
2023/07/13 05:43:14;;;;;;;3.17;1.13;;;;;;;16.92;100.00;100241.75;5030044;28;20049;-63
2023/07/13 05:45:41;;;;;;;3.53;1.58;;;;;;;16.87;100.00;100250.00;5030097;28;20061;-63
2023/07/13 05:48:07;;;;;;;4.72;1.45;;;;;;;16.80;100.00;100249.59;5029553;28;20104;-63
2023/07/13 05:50:34;;;;;;;4.30;1.30;;;;;;;16.92;100.00;100249.69;5015862;28;20084;-63
2023/07/13 05:53:01;;;;;;;3.65;1.35;;;;;;;16.96;100.00;100251.97;5023905;28;20511;-63
2023/07/13 05:55:27;;;;;;;4.80;1.40;;;;;;;17.38;100.00;100249.81;5030124;28;20057;-63
2023/07/13 05:57:54;;;;;;;2.78;1.17;;;;;;;18.04;100.00;100254.63;5028994;28;20424;-63
2023/07/13 06:00:21;;;;;;;2.85;1.10;;;;;;;18.91;100.00;100265.53;5020462;28;20136;-63
2023/07/13 06:02:48;;;;;;;2.65;1.10;;;;;;;18.55;100.00;100259.50;5029952;28;20077;-62
2023/07/13 06:05:14;;;;;;;2.63;1.10;;;;;;;18.77;100.00;100271.06;5030910;28;20510;-63
2023/07/13 06:07:42;;;;;;;4.10;1.17;;;;;;;18.95;100.00;100264.31;5041399;28;20088;-63
2023/07/13 06:10:09;;;;;;;4.78;1.23;;;;;;;18.71;100.00;100271.53;5025806;28;20045;-63
2023/07/13 06:12:36;;;;;;;6.75;1.50;;;;;;;18.32;100.00;100269.25;5028652;28;20132;-63
2023/07/13 06:15:03;;;;;;;2.58;1.15;;;;;;;18.21;100.00;100277.19;5030075;28;20057;-63
2023/07/13 06:17:30;;;;;;;3.00;1.20;;;;;;;18.40;100.00;100271.31;5029348;28;20056;-63
2023/07/13 06:19:57;;;;;;;3.15;1.13;;;;;;;18.62;100.00;100282.88;5021355;28;20128;-63
2023/07/13 06:22:23;;;;;;;3.45;1.20;;;;;;;18.82;100.00;100284.81;5026448;28;20046;-63
2023/07/13 06:24:51;;;;;;;3.30;1.00;;;;;;;18.84;100.00;100274.97;5028876;28;20060;-63
2023/07/13 06:27:18;;;;;;;2.97;1.00;;;;;;;18.78;100.00;100292.13;5028668;28;20061;-63
2023/07/13 06:29:45;;;;;;;3.55;1.20;;;;;;;18.56;100.00;100290.34;5028569;28;20049;-63
2023/07/13 06:32:12;;;;;;;3.40;1.00;;;;;;;18.46;100.00;100285.88;5028676;28;20051;-63
2023/07/13 06:34:38;;;;;;;3.13;1.00;;;;;;;18.59;100.00;100283.94;5029426;28;20506;-62
2023/07/13 06:37:09;;;;;;;3.17;1.00;;;;;;;18.89;100.00;100301.97;5029117;28;20049;-63
2023/07/13 06:39:36;;;;;;;2.92;1.00;;;;;;;18.68;100.00;100300.94;5027747;28;20056;-63
2023/07/13 06:42:03;;;;;;;2.58;1.02;;;;;;;18.49;100.00;100305.06;5029617;28;20081;-63
2023/07/13 06:44:30;;;;;;;3.58;1.05;;;;;;;18.65;100.00;100302.03;5029849;28;20057;-63
2023/07/13 06:46:56;;;;;;;2.53;1.23;;;;;;;18.84;100.00;100306.78;5015364;28;20052;-63
2023/07/13 06:49:23;;;;;;;4.68;1.10;;;;;;;18.63;100.00;100311.94;5026298;28;20411;-63
2023/07/13 06:51:50;;;;;;;2.05;1.00;;;;;;;18.77;100.00;100309.03;5027321;28;20052;-62
2023/07/13 06:54:16;;;;;;;3.30;1.13;;;;;;;18.62;100.00;100302.28;5028161;28;20054;-63
2023/07/13 06:56:43;;;;;;;1.95;0.95;;;;;;;18.72;100.00;100311.22;5029966;28;20374;-62
2023/07/13 06:59:09;;;;;;;3.63;1.48;;;;;;;18.67;100.00;100317.84;5026610;28;20399;-63
2023/07/13 07:01:36;;;;;;;3.53;1.20;;;;;;;18.46;100.00;100307.94;5026556;28;20056;-63
2023/07/13 07:04:07;;;;;;;3.40;1.38;;;;;;;18.39;100.00;100298.78;5032192;28;20047;-63
2023/07/13 07:06:33;;;;;;;4.03;1.13;;;;;;;18.75;100.00;100312.75;5025659;28;20056;-63
2023/07/13 07:09:00;;;;;;;3.97;1.40;;;;;;;19.01;100.00;100318.69;5026529;28;20041;-64
2023/07/13 07:11:27;;;;;;;4.00;1.20;;;;;;;19.09;100.00;100320.75;5026016;28;20045;-63
2023/07/13 07:13:54;;;;;;;4.45;1.40;;;;;;;19.56;100.00;100317.84;5031399;28;20053;-64
2023/07/13 07:16:21;;;;;;;3.55;1.23;;;;;;;20.38;100.00;100317.22;5024564;28;20049;-62
2023/07/13 07:18:48;;;;;;;3.67;1.10;;;;;;;20.60;100.00;100330.38;5030185;28;20046;-64
2023/07/13 07:21:15;;;;;;;5.93;1.30;;;;;;;20.42;100.00;100329.31;5018263;28;20053;-63
2023/07/13 07:23:42;;;;;;;4.18;1.20;;;;;;;20.43;100.00;100318.53;5030325;28;20486;-63
2023/07/13 07:26:10;;;;;;;2.17;0.90;;;;;;;20.70;100.00;100327.81;5017931;28;20430;-63
2023/07/13 07:28:37;;;;;;;4.63;1.23;;;;;;;20.52;100.00;100327.50;5031717;28;20096;-64
2023/07/13 07:31:07;;;;;;;3.35;1.00;;;;;;;20.43;100.00;100328.31;5026846;28;20053;-64
2023/07/13 07:33:36;;;;;;;3.70;1.17;;;;;;;20.52;100.00;100337.31;5029607;28;20050;-64
2023/07/13 07:36:03;;;;;;;4.55;0.90;;;;;;;20.40;100.00;100320.63;5029553;28;20081;-64
2023/07/13 07:38:33;;;;;;;2.33;0.90;;;;;;;20.36;100.00;100330.69;5018594;28;20061;-64
2023/07/13 07:41:04;;;;;;;4.07;1.15;;;;;;;19.88;100.00;100323.19;5027460;28;20058;-64
2023/07/13 07:43:34;;;;;;;1.45;0.90;;;;;;;19.87;100.00;100337.47;5031603;28;20053;-64
2023/07/13 07:46:01;;;;;;;4.45;1.10;;;;;;;20.11;100.00;100337.19;5026816;28;20408;-64
2023/07/13 07:48:29;;;;;;;4.43;1.05;;;;;;;20.30;100.00;100341.81;5024176;28;20052;-64
2023/07/13 07:50:56;;;;;;;4.78;1.10;;;;;;;19.89;100.00;100343.47;5022609;28;20132;-64
2023/07/13 07:53:23;;;;;;;2.45;1.10;;;;;;;19.51;100.00;100331.50;5025646;28;20049;-64
2023/07/13 07:55:51;;;;;;;4.10;1.27;;;;;;;19.35;100.00;100342.50;5031086;28;20132;-64
2023/07/13 07:58:20;;;;;;;6.35;1.48;;;;;;;19.80;100.00;100338.94;5014356;28;20060;-63
2023/07/13 08:00:50;;;;;;;4.30;1.10;;;;;;;19.78;100.00;100341.72;5023173;28;20056;-64
2023/07/13 08:03:19;;;;;;;4.00;1.17;;;;;;;19.71;100.00;100343.16;5025336;28;20061;-64
2023/07/13 08:05:52;;;;;;;3.25;1.10;;;;;;;19.53;100.00;100338.38;5015459;28;20053;-64
2023/07/13 08:08:39;;;;;;;3.85;1.25;;;;;;;19.42;100.00;100342.88;5019876;28;20049;-64
2023/07/13 08:11:08;;;;;;;3.17;1.15;;;;;;;19.74;100.00;100319.00;5022656;28;20050;-64
2023/07/13 08:13:37;;;;;;;3.83;1.25;;;;;;;20.12;100.00;100346.88;5024292;28;20053;-64
2023/07/13 08:16:05;;;;;;;3.85;1.27;;;;;;;19.48;100.00;100345.03;5021723;28;20487;-64
2023/07/13 08:18:33;;;;;;;3.22;1.08;;;;;;;19.74;100.00;100342.91;5023426;28;20084;-63
2023/07/13 08:21:06;;;;;;;3.38;1.08;;;;;;;19.65;100.00;100349.78;5025327;28;20042;-64
2023/07/13 08:23:34;;;;;;;5.57;1.50;;;;;;;20.11;100.00;100347.81;5022084;28;20056;-64
2023/07/13 08:26:01;;;;;;;3.72;1.13;;;;;;;19.96;100.00;100352.63;5038337;28;20053;-63
2023/07/13 08:28:28;;;;;;;3.50;1.10;;;;;;;20.03;100.00;100348.47;5025816;28;20053;-63
2023/07/13 08:30:55;;;;;;;4.13;1.10;;;;;;;19.73;100.00;100344.75;5029250;28;20052;-64
2023/07/13 08:33:24;;;;;;;2.90;1.13;;;;;;;19.47;100.00;100343.34;5026070;28;20061;-63
2023/07/13 08:35:51;;;;;;;3.28;1.05;;;;;;;19.32;100.00;100345.44;5028298;28;20085;-63
2023/07/13 08:38:18;;;;;;;3.08;0.90;;;;;;;19.00;100.00;100348.00;5029665;28;20052;-64
2023/07/13 08:40:51;;;;;;;4.85;1.60;;;;;;;19.45;100.00;100337.31;5027989;28;20045;-63
2023/07/13 08:43:25;;;;;;;3.63;1.20;;;;;;;19.51;100.00;100348.28;5028484;28;20403;-64
2023/07/13 08:46:20;;;;;;;1.98;0.90;;;;;;;19.61;100.00;100345.72;5021461;28;20050;-64
2023/07/13 08:48:53;;;;;;;3.80;1.10;;;;;;;19.40;100.00;100358.91;5028604;28;20041;-64
2023/07/13 08:51:35;;;;;;;3.55;1.20;;;;;;;19.43;100.00;100355.19;5025966;28;20049;-63
2023/07/13 08:54:08;;;;;;;3.13;1.05;;;;;;;19.34;100.00;100360.25;5027118;28;20050;-64
2023/07/13 08:56:35;;;;;;;3.53;1.05;;;;;;;19.41;100.00;100357.97;5027734;28;20076;-64
2023/07/13 08:59:12;;;;;;;2.80;0.98;;;;;;;19.33;100.00;100352.41;5026611;28;20041;-64
2023/07/13 09:02:10;;;;;;;7.10;1.50;;;;;;;19.49;100.00;100357.34;5022625;28;20510;-64
2023/07/13 09:04:54;;;;;;;3.50;1.17;;;;;;;19.28;100.00;100351.94;5027810;28;20092;-65
2023/07/13 09:07:48;;;;;;;2.97;1.20;;;;;;;18.59;100.00;100360.84;5027630;28;20069;-64
2023/07/13 09:10:20;;;;;;;4.55;1.50;;;;;;;19.22;100.00;100352.44;5026796;28;20120;-64
2023/07/13 09:12:58;;;;;;;3.07;1.20;;;;;;;19.24;100.00;100354.00;5027874;28;20041;-64
2023/07/13 09:15:43;;;;;;;3.80;1.10;;;;;;;19.08;100.00;100330.50;5029170;28;20076;-64
2023/07/13 09:18:11;;;;;;;5.07;1.55;;;;;;;18.82;100.00;100345.81;5014212;28;20435;-64
2023/07/13 09:20:48;;;;;;;4.43;1.20;;;;;;;18.38;100.00;100347.47;5024841;28;20053;-64
2023/07/13 09:23:19;;;;;;;4.50;1.38;;;;;;;18.32;100.00;100335.50;5028763;28;20057;-64
2023/07/13 09:25:55;;;;;;;4.97;1.67;;;;;;;18.43;100.00;100349.72;5024978;28;20057;-64
2023/07/13 09:28:31;;;;;;;5.57;1.55;;;;;;;18.13;100.00;100346.66;5027653;28;20053;-65
2023/07/13 09:31:24;;;;;;;4.57;1.52;;;;;;;18.40;100.00;100342.88;5028198;28;20107;-62
2023/07/13 09:33:50;;;;;;;5.38;1.77;;;;;;;18.24;100.00;100348.50;5022989;28;20119;-63
2023/07/13 09:36:19;;;;;;;5.22;1.52;;;;;;;18.43;100.00;100355.03;5028030;28;20483;-63
2023/07/13 09:38:48;;;;;;;6.38;1.58;;;;;;;18.58;100.00;100336.13;5027284;28;20067;-63
2023/07/13 09:41:49;;;;;;;5.53;1.50;;;;;;;18.34;100.00;100357.44;5027481;28;20061;-63
2023/07/13 09:44:26;;;;;;;5.38;1.50;;;;;;;18.31;100.00;100360.31;5011902;28;20049;-63
2023/07/13 09:46:54;;;;;;;5.07;1.40;;;;;;;18.07;100.00;100363.00;5028965;28;20081;-63
2023/07/13 09:49:29;;;;;;;4.60;1.63;;;;;;;17.94;100.00;100357.78;5027203;28;20479;-63
2023/07/13 09:52:04;;;;;;;4.22;1.40;;;;;;;17.68;100.00;100351.75;5026557;28;20419;-63
2023/07/13 09:54:34;;;;;;;5.57;1.60;;;;;;;17.71;100.00;100356.81;5028757;28;20049;-63
2023/07/13 09:57:02;;;;;;;6.65;1.75;;;;;;;17.63;100.00;100375.88;5028384;28;20415;-63
2023/07/13 09:59:41;;;;;;;7.35;1.80;;;;;;;17.39;100.00;100375.06;5030649;28;20041;-63
2023/07/13 10:02:27;;;;;;;8.05;1.67;;;;;;;17.38;100.00;100378.63;5034126;28;20265;-64
2023/07/13 10:05:15;;;;;;;6.38;1.88;;;;;;;17.42;100.00;100366.88;5044492;28;20573;-62
2023/07/13 10:07:45;;;;;;;4.07;1.33;;;;;;;17.65;100.00;100381.06;5030296;28;20096;-64
2023/07/13 10:10:20;;;;;;;6.35;1.70;;;;;;;17.64;100.00;100380.25;5026596;28;20447;-64
2023/07/13 10:12:47;;;;;;;5.22;1.88;;;;;;;17.24;100.00;100391.03;5028953;28;20051;-63
2023/07/13 10:15:25;;;;;;;7.75;2.05;;;;;;;17.03;100.00;100384.63;5022854;28;20060;-63
2023/07/13 10:17:55;;;;;;;5.95;1.80;;;;;;;17.14;100.00;100355.63;5029824;28;20158;-64
2023/07/13 10:20:22;;;;;;;3.92;1.35;;;;;;;17.17;100.00;100386.31;5026821;28;20056;-64
2023/07/13 10:23:11;;;;;;;4.22;1.48;;;;;;;16.78;100.00;100374.88;5030893;28;20055;-64
2023/07/13 10:25:42;;;;;;;4.10;1.58;;;;;;;16.61;100.00;100379.56;5033431;28;20598;-63
2023/07/13 10:28:24;;;;;;;4.32;1.42;;;;;;;16.98;100.00;100394.69;5033107;28;20056;-63
2023/07/13 10:30:53;;;;;;;5.93;1.80;;;;;;;16.61;100.00;100394.53;5029441;28;20511;-63
2023/07/13 10:33:21;;;;;;;3.38;1.40;;;;;;;16.69;100.00;100403.63;5032477;28;20059;-64
2023/07/13 10:35:54;;;;;;;3.85;1.42;;;;;;;16.44;100.00;100401.81;5032939;28;20045;-63
2023/07/13 10:38:23;;;;;;;6.68;1.92;;;;;;;16.40;100.00;100397.72;5032194;28;20176;-64
2023/07/13 10:41:11;;;;;;;3.85;1.45;;;;;;;16.58;100.00;100406.19;5028162;28;20428;-64
2023/07/13 10:43:52;;;;;;;2.95;1.10;;;;;;;16.58;100.00;100405.34;5024039;28;20095;-64
2023/07/13 10:46:22;;;;;;;3.28;1.10;;;;;;;16.63;100.00;100408.53;5032307;28;20498;-64
2023/07/13 10:48:53;;;;;;;2.50;0.90;;;;;;;17.05;100.00;100403.88;5032450;28;20703;-63
2023/07/13 10:51:22;;;;;;;3.95;1.15;;;;;;;17.11;100.00;100407.91;5029631;28;20305;-64
2023/07/13 10:54:18;;;;;;;3.35;1.20;;;;;;;17.36;100.00;100414.94;5029250;28;20045;-64
2023/07/13 10:56:49;;;;;;;4.13;1.52;;;;;;;17.17;100.00;100412.75;5023978;28;20049;-64
2023/07/13 10:59:28;;;;;;;3.05;1.10;;;;;;;17.31;100.00;100423.22;5034120;28;20506;-64
2023/07/13 11:02:05;;;;;;;4.68;1.20;;;;;;;17.06;100.00;100421.44;5043340;28;20425;-63
2023/07/13 11:04:44;;;;;;;4.70;1.48;;;;;;;16.58;100.00;100432.63;5023510;28;20157;-64
2023/07/13 11:07:23;;;;;;;2.72;0.93;;;;;;;16.67;100.00;100425.84;5032637;28;20057;-64
2023/07/13 11:09:57;;;;;;;5.03;1.40;;;;;;;16.63;100.00;100422.56;5026653;28;20441;-64
2023/07/13 11:12:26;;;;;;;;;;;;;;;16.62;100.00;100434.09;5038557;28;20241;-63
2023/07/13 11:15:03;;;;;;;2.35;1.10;;;;;;;16.76;100.00;100430.50;5014236;28;20264;-64
2023/07/13 11:17:37;;;;;;;3.25;1.05;;;;;;;16.84;100.00;100417.66;5012206;28;20045;-64
2023/07/13 11:20:13;;;;;;;2.55;1.02;;;;;;;16.82;100.00;100424.81;5027179;28;20338;-64
2023/07/13 11:22:52;;;;;;;3.72;1.52;;;;;;;16.74;100.00;100428.94;5030920;28;20060;-64
2023/07/13 11:25:19;;;;;;;2.95;1.00;;;;;;;16.91;100.00;100439.25;4995809;28;20045;-64
2023/07/13 11:27:52;;;;;;;6.35;1.23;;;;;;;17.04;100.00;100437.41;5024828;28;20064;-65